Time;durP1;ratioP1;P1;durP2;ratioP2;P2;SDS_P1;SDS_P2;PMS_P1;PMS_P2;Temp;Humidity;BMP_temperature;BMP_pressure;BME280_temperature;BME280_humidity;BME280_pressure;Samples;Min_cycle;Max_cycle;Signal;HPM_P1;HPM_P2
2022/12/12 00:01:29;;;;;;;3.63;2.50;;;;;;;-141.97;85.13;47909.28;5059229;28;21212;-80
2022/12/12 00:03:54;;;;;;;3.47;2.10;;;;;;;-141.97;85.93;47872.75;5058719;28;20551;-80
2022/12/12 00:06:21;;;;;;;3.70;2.73;;;;;;;-141.97;85.91;47861.22;5059318;28;20162;-80
2022/12/12 00:08:47;;;;;;;3.77;2.27;;;;;;;-141.97;86.17;47888.13;5058184;28;20185;-80
2022/12/12 00:11:13;;;;;;;3.83;2.50;;;;;;;-141.97;86.08;47901.59;5042417;28;20682;-80
2022/12/12 00:13:38;;;;;;;5.03;2.80;;;;;;;-141.97;85.46;47863.13;5038426;28;20188;-79
2022/12/12 00:16:06;;;;;;;5.10;2.93;;;;;;;-141.97;84.58;47880.44;5039160;28;20523;-80
2022/12/12 00:18:35;;;;;;;4.73;2.67;;;;;;;-141.97;84.46;47868.91;5041307;28;20201;-79
2022/12/12 00:21:04;;;;;;;5.07;3.00;;;;;;;-141.97;85.55;47870.81;5071705;28;20233;-80
2022/12/12 00:23:30;;;;;;;4.80;2.70;;;;;;;-141.97;85.07;47888.13;5040257;28;20231;-80
2022/12/12 00:26:06;;;;;;;6.13;2.77;;;;;;;-141.97;85.06;47878.53;5071865;28;20221;-80
2022/12/12 00:28:32;;;;;;;6.30;3.17;;;;;;;-141.97;85.20;47880.44;5039587;28;20245;-80
2022/12/12 00:30:57;;;;;;;5.50;3.43;;;;;;;-141.97;85.13;47899.66;5039619;28;20201;-80
2022/12/12 00:33:23;;;;;;;5.43;3.10;;;;;;;-141.97;85.34;47880.44;5038404;28;20220;-79
2022/12/12 00:35:50;;;;;;;4.60;2.93;;;;;;;-141.97;85.31;47882.38;5038588;28;20266;-79
2022/12/12 00:38:17;;;;;;;6.10;3.50;;;;;;;-141.97;85.52;47865.06;5038734;28;20217;-80
2022/12/12 00:40:43;;;;;;;7.57;3.80;;;;;;;-141.97;85.55;47842.00;5049826;28;20683;-81
2022/12/12 00:43:08;;;;;;;6.57;3.97;;;;;;;-141.97;85.63;47888.13;5058720;28;20173;-80
2022/12/12 00:45:35;;;;;;;5.93;3.30;;;;;;;-141.97;85.30;47880.44;5058288;28;20174;-80
2022/12/12 00:48:01;;;;;;;7.83;3.70;;;;;;;-141.97;85.13;47874.69;5058531;28;20251;-80
2022/12/12 00:50:27;;;;;;;5.90;3.23;;;;;;;-141.97;85.39;47826.63;5058758;28;20606;-80
2022/12/12 00:52:55;;;;;;;5.70;3.60;;;;;;;-141.97;85.27;47890.06;5058559;28;20173;-80
2022/12/12 00:55:21;;;;;;;6.00;3.20;;;;;;;-141.97;85.01;47915.03;5058590;28;20175;-81
2022/12/12 00:57:46;;;;;;;5.70;3.27;;;;;;;-141.97;84.89;47976.56;5058315;28;20193;-81
2022/12/12 01:00:13;;;;;;;7.73;3.20;;;;;;;-141.97;85.27;47888.13;5058572;28;20169;-80
2022/12/12 01:02:38;;;;;;;5.83;3.40;;;;;;;-141.97;84.58;47901.59;5058285;28;20676;-80
2022/12/12 01:05:04;;;;;;;5.53;3.60;;;;;;;-141.97;84.14;47918.88;5058611;28;20200;-81
2022/12/12 01:07:30;;;;;;;6.87;3.90;;;;;;;-141.97;84.15;47899.66;5073104;28;20197;-81
2022/12/12 01:09:55;;;;;;;6.03;3.50;;;;;;;-141.97;83.83;47876.59;5053823;28;20176;-81
2022/12/12 01:12:21;;;;;;;5.67;2.90;;;;;;;-141.97;83.36;47886.22;5038261;28;20202;-81
2022/12/12 01:14:46;;;;;;;5.10;3.10;;;;;;;-141.97;83.01;48011.16;5037931;28;20170;-81
2022/12/12 01:17:12;;;;;;;5.17;3.17;;;;;;;-141.97;82.88;47880.44;5038737;28;20174;-80
2022/12/12 01:19:37;;;;;;;9.17;2.80;;;;;;;-141.97;82.38;47880.44;5038583;28;20284;-81
2022/12/12 01:22:02;;;;;;;5.57;3.77;;;;;;;-141.97;82.71;47888.13;5037544;28;20178;-80
2022/12/12 01:24:29;;;;;;;6.97;4.00;;;;;;;-141.97;82.70;47851.59;5037746;28;20181;-81
2022/12/12 01:26:55;;;;;;;6.37;3.40;;;;;;;-141.97;82.92;47845.84;5038930;28;20519;-81
2022/12/12 01:29:20;;;;;;;4.70;2.57;;;;;;;-141.97;83.02;47918.88;5038928;28;20182;-81
2022/12/12 01:31:45;;;;;;;6.57;3.90;;;;;;;-141.97;82.99;47891.97;5038030;28;20702;-81
2022/12/12 01:34:11;;;;;;;5.87;3.57;;;;;;;-141.97;83.07;47863.13;5038440;28;20174;-80
2022/12/12 01:36:37;;;;;;;5.70;3.30;;;;;;;-141.97;83.15;47895.81;5037893;28;20228;-80
2022/12/12 01:39:03;;;;;;;5.40;3.43;;;;;;;-141.97;82.33;47857.38;5037577;28;20613;-81
2022/12/12 01:41:28;;;;;;;7.27;3.60;;;;;;;-141.97;81.75;47868.91;5054917;28;20665;-81
2022/12/12 01:43:54;;;;;;;5.60;3.70;;;;;;;-141.97;81.08;47870.81;5057833;28;20419;-81
2022/12/12 01:46:37;;;;;;;5.20;3.23;;;;;;;-141.97;81.02;47888.13;5056257;28;20234;-81
2022/12/12 01:49:10;;;;;;;6.20;3.20;;;;;;;-141.97;80.79;47865.06;5056974;28;20284;-80
2022/12/12 01:51:37;;;;;;;6.53;3.40;;;;;;;-141.97;80.74;47895.81;5052410;28;20500;-80
2022/12/12 01:54:13;;;;;;;6.17;3.67;;;;;;;-141.97;80.41;47857.38;5052431;28;20416;-81
2022/12/12 01:56:41;;;;;;;12.60;6.67;;;;;;;-141.97;80.68;47911.19;5050535;28;20181;-81
2022/12/12 01:59:09;;;;;;;6.63;4.47;;;;;;;-141.97;80.38;47847.75;5051997;28;20487;-80
2022/12/12 02:01:36;;;;;;;5.20;2.97;;;;;;;-141.97;79.85;47865.06;5052272;28;20412;-81
2022/12/12 02:04:02;;;;;;;7.23;3.77;;;;;;;-141.97;80.11;47916.97;5052520;28;20192;-81
2022/12/12 02:06:29;;;;;;;10.77;5.40;;;;;;;-141.97;80.15;47853.53;5052179;28;20987;-81
2022/12/12 02:08:59;;;;;;;3.97;2.57;;;;;;;-141.97;79.81;47928.50;5055505;28;20414;-81
2022/12/12 02:11:29;;;;;;;5.17;2.93;;;;;;;-141.97;80.03;47868.91;5052688;28;20205;-81
2022/12/12 02:13:56;;;;;;;4.90;3.27;;;;;;;-141.97;80.04;47884.28;5045862;28;20178;-81
2022/12/12 02:16:37;;;;;;;3.20;2.03;;;;;;;-141.97;79.13;47857.38;5043923;28;20630;-81
2022/12/12 02:19:08;;;;;;;4.23;2.77;;;;;;;-141.97;78.85;47861.22;5041082;28;20205;-81
2022/12/12 02:21:51;;;;;;;4.03;2.40;;;;;;;-141.97;78.99;47863.13;5035088;28;20198;-81
2022/12/12 02:24:29;;;;;;;4.60;2.63;;;;;;;-141.97;77.91;47888.13;5034406;28;20177;-80
2022/12/12 02:27:02;;;;;;;4.80;3.13;;;;;;;-141.97;77.91;47880.44;5033916;28;20226;-81
2022/12/12 02:29:45;;;;;;;4.13;3.13;;;;;;;-141.97;77.53;47880.44;5037652;28;20158;-81
2022/12/12 02:32:30;;;;;;;5.47;3.07;;;;;;;-141.97;78.37;47897.75;5054504;28;20169;-80
2022/12/12 02:35:16;;;;;;;4.07;2.60;;;;;;;-141.97;79.18;47868.91;5045254;28;20174;-81
2022/12/12 02:38:00;;;;;;;4.07;3.17;;;;;;;-141.97;79.52;47865.06;5041570;28;20202;-81
2022/12/12 02:40:35;;;;;;;5.33;3.30;;;;;;;-141.97;79.26;47865.06;5042931;28;20180;-81
2022/12/12 02:43:28;;;;;;;4.43;3.00;;;;;;;-141.97;79.17;47888.13;5055732;28;20176;-80
2022/12/12 02:46:01;;;;;;;4.50;3.00;;;;;;;-141.97;79.23;47859.28;5050794;28;20199;-81
2022/12/12 02:48:40;;;;;;;4.53;2.90;;;;;;;-141.97;79.54;47899.66;5049681;28;20189;-81
2022/12/12 02:51:10;;;;;;;4.20;2.87;;;;;;;-141.97;79.30;47878.53;5049776;28;20201;-80
2022/12/12 02:53:35;;;;;;;3.87;2.90;;;;;;;-141.97;79.26;47872.75;5050087;28;20177;-81
2022/12/12 02:56:24;;;;;;;5.23;2.97;;;;;;;-141.97;79.16;47899.66;5048937;28;20178;-81
2022/12/12 02:58:50;;;;;;;4.57;3.10;;;;;;;-141.97;79.09;47853.53;5049057;28;20232;-81
2022/12/12 03:01:46;;;;;;;6.00;3.40;;;;;;;-141.97;79.49;47884.28;5049323;28;20555;-81
2022/12/12 03:07:49;;;;;;;6.30;3.17;;;;;;;-141.97;79.33;47899.66;4970960;28;20219;-81
2022/12/12 03:10:36;;;;;;;4.57;3.30;;;;;;;-141.97;79.81;47851.59;4970285;28;20711;-81
2022/12/12 03:13:25;;;;;;;4.37;3.17;;;;;;;-141.97;80.27;47857.38;4970490;28;20191;-81
2022/12/12 03:15:58;;;;;;;5.73;3.40;;;;;;;-141.97;80.47;47866.97;4970449;28;20205;-81
2022/12/12 03:18:36;;;;;;;6.13;3.33;;;;;;;-141.97;81.11;47874.69;4971004;28;20215;-81
2022/12/12 03:21:10;;;;;;;4.70;3.27;;;;;;;-141.97;80.97;47811.25;4970808;28;20652;-81
2022/12/12 03:23:43;;;;;;;5.00;3.20;;;;;;;-141.97;81.80;47890.06;4960149;28;20203;-80
2022/12/12 03:26:14;;;;;;;5.10;2.77;;;;;;;-141.97;82.22;47901.59;4970780;28;20227;-81
2022/12/12 03:28:47;;;;;;;4.13;2.70;;;;;;;-141.97;81.87;47884.28;4970180;28;20807;-81
2022/12/12 03:31:17;;;;;;;5.77;3.10;;;;;;;-141.97;81.92;47826.63;4970308;28;20191;-80
2022/12/12 03:33:48;;;;;;;4.30;3.10;;;;;;;-141.97;81.40;47886.22;4970595;28;20255;-80
2022/12/12 03:36:26;;;;;;;5.73;3.13;;;;;;;-141.97;81.64;47888.13;4970062;28;20232;-80
2022/12/12 03:39:13;;;;;;;4.00;2.80;;;;;;;-141.97;81.30;47820.84;4969991;28;20216;-81
2022/12/12 03:41:43;;;;;;;5.53;3.23;;;;;;;-141.97;81.28;47845.84;4953367;28;20260;-80
2022/12/12 03:44:19;;;;;;;5.57;3.23;;;;;;;-141.97;81.37;47849.69;4995915;28;20673;-81
2022/12/12 03:46:53;;;;;;;4.80;3.17;;;;;;;-141.97;81.31;47857.38;5050689;28;20640;-81
2022/12/12 03:49:50;;;;;;;5.23;3.30;;;;;;;-141.97;80.82;47872.75;5050796;28;20177;-81
2022/12/12 03:52:27;;;;;;;5.10;3.40;;;;;;;-141.97;80.82;47838.16;5050665;28;20231;-80
2022/12/12 03:54:57;;;;;;;5.90;3.33;;;;;;;-141.97;80.44;47895.81;5049503;28;20169;-81
2022/12/12 03:57:33;;;;;;;6.23;3.50;;;;;;;-141.97;79.89;47878.53;5051181;28;20174;-81
2022/12/12 04:00:07;;;;;;;4.93;3.23;;;;;;;-141.97;79.82;47870.81;5051043;28;20268;-80
2022/12/12 04:02:50;;;;;;;4.00;2.97;;;;;;;-141.97;80.05;47870.81;5051880;28;20177;-81
2022/12/12 04:08:33;;;;;;;4.93;3.10;;;;;;;-141.97;79.67;47874.69;5051112;28;20267;-80
2022/12/12 04:13:56;;;;;;;5.70;2.97;;;;;;;-141.97;80.59;47895.81;5052120;28;20231;-80
2022/12/12 04:16:34;;;;;;;5.17;3.20;;;;;;;-141.97;80.62;47838.16;5052225;28;20260;-80
2022/12/12 04:19:09;;;;;;;6.43;3.20;;;;;;;-141.97;81.05;47855.44;5052059;28;20621;-81
2022/12/12 04:24:37;;;;;;;37.33;19.17;;;;;;;-141.97;81.31;47870.81;5051904;28;20246;-80
2022/12/12 04:27:09;;;;;;;12.03;5.43;;;;;;;-141.97;81.93;47872.75;5052213;28;20222;-81
2022/12/12 04:29:59;;;;;;;11.40;5.87;;;;;;;-141.97;82.99;47845.84;5052025;28;20354;-81
2022/12/12 04:32:43;;;;;;;17.30;9.13;;;;;;;-141.97;83.83;47880.44;5051915;28;20330;-80
2022/12/12 04:35:22;;;;;;;20.43;12.60;;;;;;;-141.97;84.61;47872.75;5051980;28;20256;-81
2022/12/12 04:37:55;;;;;;;13.33;8.60;;;;;;;-141.97;84.35;47880.44;5052374;28;20463;-81
2022/12/12 04:40:26;;;;;;;38.10;15.37;;;;;;;-141.97;84.17;47913.13;5028345;28;20174;-81
2022/12/12 04:42:57;;;;;;;23.23;10.03;;;;;;;-141.97;84.23;47853.53;5032172;28;20260;-81
2022/12/12 04:45:27;;;;;;;20.23;9.13;;;;;;;-141.97;84.81;47851.59;5047325;28;20227;-81
2022/12/12 04:47:55;;;;;;;15.10;6.37;;;;;;;-141.97;84.59;47849.69;5062340;28;20557;-81
2022/12/12 04:50:24;;;;;;;14.80;6.97;;;;;;;-141.97;85.25;47880.44;5053112;28;20372;-81
2022/12/12 04:52:52;;;;;;;10.17;5.90;;;;;;;-141.97;85.74;47818.94;5052691;28;20181;-81
2022/12/12 04:55:47;;;;;;;8.97;5.10;;;;;;;-141.97;86.33;47872.75;5054792;28;20749;-81
2022/12/12 04:58:13;;;;;;;9.53;5.00;;;;;;;-141.97;87.04;47878.53;5051107;28;20467;-81
2022/12/12 05:00:47;;;;;;;8.03;5.17;;;;;;;-141.97;87.08;47868.91;5051400;28;20454;-81
2022/12/12 05:03:28;;;;;;;18.60;10.37;;;;;;;-141.97;87.32;47899.66;5051318;28;20947;-81
2022/12/12 05:05:58;;;;;;;56.70;34.67;;;;;;;-141.97;88.77;47872.75;5051522;28;20412;-80
2022/12/12 05:08:37;;;;;;;88.93;53.60;;;;;;;-141.97;89.26;47865.06;5051003;28;20420;-80
2022/12/12 05:11:04;;;;;;;49.97;32.83;;;;;;;-141.97;89.61;47847.75;5050271;28;20428;-80
2022/12/12 05:13:34;;;;;;;29.27;16.97;;;;;;;-141.97;90.40;47880.44;5051357;28;20503;-81
2022/12/12 05:16:02;;;;;;;24.47;13.93;;;;;;;-141.97;90.88;47857.38;5051424;28;20415;-81
2022/12/12 05:18:29;;;;;;;28.47;14.13;;;;;;;-141.97;90.77;47865.06;5050844;28;20451;-80
2022/12/12 05:20:54;;;;;;;18.37;10.10;;;;;;;-141.97;90.59;47851.59;5050327;28;20399;-80
2022/12/12 05:23:20;;;;;;;26.23;14.90;;;;;;;-141.97;89.99;47834.31;5051581;28;20408;-80
2022/12/12 05:25:45;;;;;;;38.10;21.27;;;;;;;-141.97;89.29;47853.53;5051377;28;20706;-80
2022/12/12 05:28:11;;;;;;;45.27;23.50;;;;;;;-141.97;89.54;47876.59;5050473;28;20205;-81
2022/12/12 05:30:36;;;;;;;36.13;17.70;;;;;;;-141.97;89.67;47888.13;5050964;28;20192;-81
2022/12/12 05:33:02;;;;;;;29.20;15.73;;;;;;;-141.97;89.74;47865.06;5050800;28;20260;-81
2022/12/12 05:35:27;;;;;;;23.87;13.00;;;;;;;-141.97;89.38;47834.31;5043781;28;20213;-82
2022/12/12 05:37:53;;;;;;;24.07;13.07;;;;;;;-141.97;89.12;47853.53;5052697;28;20589;-80
2022/12/12 05:40:19;;;;;;;27.23;13.47;;;;;;;-141.97;88.70;47845.84;5051953;28;20166;-81
2022/12/12 05:42:45;;;;;;;27.80;12.40;;;;;;;-141.97;88.67;47866.97;5053011;28;20208;-80
2022/12/12 05:45:11;;;;;;;21.90;12.33;;;;;;;-141.97;88.71;47899.66;5017984;28;20221;-80
2022/12/12 05:47:36;;;;;;;23.40;11.77;;;;;;;-141.97;88.28;47863.13;5049630;28;20193;-80
2022/12/12 05:50:03;;;;;;;23.33;11.40;;;;;;;-141.97;87.52;47857.38;5050473;28;20174;-80
2022/12/12 05:52:28;;;;;;;24.40;12.20;;;;;;;-141.97;87.00;47899.66;5049682;28;20203;-80
2022/12/12 05:54:54;;;;;;;28.17;12.73;;;;;;;-141.97;86.88;47895.81;5050404;28;20932;-79
2022/12/12 05:57:19;;;;;;;27.20;12.07;;;;;;;-141.97;87.35;47861.22;5048547;28;20192;-80
2022/12/12 05:59:45;;;;;;;28.40;14.23;;;;;;;-141.97;86.89;47840.06;5050131;28;20209;-80
2022/12/12 06:02:12;;;;;;;35.33;15.10;;;;;;;-141.97;86.46;47865.06;5050010;28;20652;-80
2022/12/12 06:04:38;;;;;;;36.57;15.10;;;;;;;-141.97;86.31;47863.13;5050228;28;20905;-80
2022/12/12 06:07:03;;;;;;;37.37;14.77;;;;;;;-141.97;86.80;47874.69;5049188;28;20271;-81
2022/12/12 06:09:29;;;;;;;39.67;17.47;;;;;;;-141.97;87.03;47820.84;5049992;28;20657;-80
2022/12/12 06:11:54;;;;;;;38.67;18.00;;;;;;;-141.97;86.29;47849.69;5050143;28;20192;-80
2022/12/12 06:14:19;;;;;;;32.60;15.17;;;;;;;-141.97;85.93;47884.28;5039549;28;20229;-80
2022/12/12 06:16:45;;;;;;;34.40;16.00;;;;;;;-141.97;85.79;47855.44;5043515;28;20258;-82
2022/12/12 06:19:10;;;;;;;34.00;16.43;;;;;;;-141.97;85.68;47934.25;5049987;28;20207;-81
2022/12/12 06:21:36;;;;;;;28.43;14.10;;;;;;;-141.97;85.30;47872.75;5050045;28;20661;-80
2022/12/12 06:24:04;;;;;;;40.23;17.60;;;;;;;-141.97;85.71;47855.44;5052123;28;20188;-81
2022/12/12 06:26:30;;;;;;;51.47;26.40;;;;;;;-141.97;85.62;47863.13;5073132;28;20181;-80
2022/12/12 06:28:55;;;;;;;38.33;19.70;;;;;;;-141.97;85.82;47907.34;5070316;28;20204;-80
2022/12/12 06:31:22;;;;;;;45.13;17.57;;;;;;;-141.97;85.94;47863.13;5064478;28;20177;-81
2022/12/12 06:33:48;;;;;;;42.10;17.00;;;;;;;-141.97;85.45;47888.13;5063403;28;20207;-81
2022/12/12 06:36:22;;;;;;;39.47;16.60;;;;;;;-141.97;85.73;47876.59;5056060;28;20638;-81
2022/12/12 06:38:48;;;;;;;50.77;20.17;;;;;;;-141.97;85.75;47876.59;5053506;28;20212;-81
2022/12/12 06:41:14;;;;;;;39.53;17.37;;;;;;;-141.97;85.16;47868.91;5054842;28;20260;-81
2022/12/12 06:43:40;;;;;;;42.03;23.87;;;;;;;-141.97;84.51;47861.22;5029370;28;20313;-81
2022/12/12 06:46:09;;;;;;;43.10;24.93;;;;;;;-141.97;84.13;47866.97;5063189;28;20189;-82
2022/12/12 06:48:35;;;;;;;35.67;21.43;;;;;;;-141.97;84.32;47865.06;5072516;28;20240;-81
2022/12/12 06:51:14;;;;;;;39.77;22.00;;;;;;;-141.97;83.18;47886.22;5064129;28;20192;-81
2022/12/12 06:53:40;;;;;;;29.30;16.60;;;;;;;-141.97;82.58;47849.69;5061275;28;20173;-81
2022/12/12 06:56:11;;;;;;;28.13;14.33;;;;;;;-141.97;82.41;47857.38;5055500;28;20271;-81
2022/12/12 06:58:36;;;;;;;33.40;14.80;;;;;;;-141.97;82.68;47847.75;5052672;28;20300;-80
2022/12/12 07:01:02;;;;;;;35.40;15.80;;;;;;;-141.97;82.97;47865.06;5051272;28;20212;-80
2022/12/12 07:03:28;;;;;;;32.87;16.13;;;;;;;-141.97;82.27;47855.44;5050677;28;20184;-81
2022/12/12 07:05:53;;;;;;;44.73;17.93;;;;;;;-141.97;82.79;47853.53;5050445;28;20192;-83
2022/12/12 07:08:19;;;;;;;48.17;16.77;;;;;;;-141.97;82.93;47872.75;5052327;28;20738;-83
2022/12/12 07:10:44;;;;;;;39.67;17.83;;;;;;;-141.97;82.67;47840.06;5051460;28;20181;-84
2022/12/12 07:13:10;;;;;;;45.00;23.60;;;;;;;-141.97;82.68;47761.25;5038449;28;20650;-83
2022/12/12 07:15:49;;;;;;;50.90;25.40;;;;;;;-141.97;81.24;47876.59;5055261;28;20177;-83
2022/12/12 07:18:16;;;;;;;33.83;17.50;;;;;;;-141.97;76.47;47838.16;5053857;28;20227;-82
2022/12/12 07:20:44;;;;;;;35.53;17.53;;;;;;;-141.97;72.93;47780.47;5050410;28;20671;-82
2022/12/12 07:23:09;;;;;;;40.30;20.07;;;;;;;-141.97;72.07;47868.91;5051195;28;20281;-82
2022/12/12 07:25:40;;;;;;;31.43;17.23;;;;;;;-141.97;73.38;47818.94;5049793;28;20601;-81
2022/12/12 07:28:07;;;;;;;167.33;59.93;;;;;;;-141.97;75.75;47863.13;5050241;28;20752;-83
2022/12/12 07:30:33;;;;;;;69.30;30.83;;;;;;;-141.97;75.99;47845.84;5050491;28;20243;-82
2022/12/12 07:32:58;;;;;;;63.50;29.20;;;;;;;-141.97;75.99;47897.75;5050966;28;20185;-83
2022/12/12 07:35:24;;;;;;;56.37;27.87;;;;;;;-141.97;76.37;47899.66;5040248;28;20221;-82
2022/12/12 07:37:50;;;;;;;50.80;25.53;;;;;;;-141.97;76.97;47838.16;5037957;28;20205;-82
2022/12/12 07:40:15;;;;;;;103.40;43.57;;;;;;;-141.97;77.50;47820.84;5027012;28;20181;-83
2022/12/12 07:42:41;;;;;;;54.07;28.23;;;;;;;-141.97;78.84;47849.69;5030550;28;20225;-82
2022/12/12 07:45:07;;;;;;;61.33;29.17;;;;;;;-141.97;80.02;47868.91;5023691;28;20234;-82
2022/12/12 07:47:32;;;;;;;41.13;21.60;;;;;;;-141.97;80.52;47882.38;5050143;28;20263;-82
2022/12/12 07:49:57;;;;;;;46.20;22.60;;;;;;;-141.97;80.63;47868.91;5051841;28;20241;-82
2022/12/12 07:52:23;;;;;;;45.70;22.43;;;;;;;-141.97;81.27;47868.91;5052257;28;20211;-82
2022/12/12 07:54:48;;;;;;;41.80;23.03;;;;;;;-141.97;80.12;47842.00;5052117;28;20188;-81
2022/12/12 07:57:14;;;;;;;47.17;22.80;;;;;;;-141.97;80.65;47818.94;5049892;28;20181;-82
2022/12/12 07:59:39;;;;;;;45.60;22.63;;;;;;;-141.97;80.85;47832.38;5052674;28;20208;-83
2022/12/12 08:02:05;;;;;;;56.90;29.07;;;;;;;-141.97;80.14;47915.03;5052513;28;20184;-83
2022/12/12 08:04:30;;;;;;;50.80;26.83;;;;;;;-141.97;80.53;47861.22;5051719;28;20173;-82
2022/12/12 08:06:57;;;;;;;359.67;204.07;;;;;;;-141.97;80.58;47874.69;5045146;28;20315;-83
2022/12/12 08:09:23;;;;;;;148.73;72.20;;;;;;;-141.97;80.20;47880.44;5052898;28;20288;-83
2022/12/12 08:11:49;;;;;;;102.80;47.87;;;;;;;-141.97;81.72;47926.56;5051850;28;20191;-83
2022/12/12 08:14:14;;;;;;;63.63;29.80;;;;;;;-141.97;81.94;47891.97;5051004;28;20185;-82
2022/12/12 08:16:40;;;;;;;36.30;17.03;;;;;;;-141.97;82.24;47870.81;5051668;28;20187;-82
2022/12/12 08:19:05;;;;;;;26.60;15.50;;;;;;;-141.97;80.82;47868.91;5050799;28;20298;-82
2022/12/12 08:21:32;;;;;;;34.73;16.47;;;;;;;-141.97;79.97;47861.22;5053272;28;20307;-83
2022/12/12 08:24:00;;;;;;;29.27;17.17;;;;;;;-141.97;79.84;47857.38;5053916;28;20203;-84
2022/12/12 08:26:26;;;;;;;33.50;17.70;;;;;;;-141.97;79.13;47849.69;5053109;28;20661;-82
2022/12/12 08:28:52;;;;;;;23.63;13.13;;;;;;;-141.97;77.47;47859.28;5052999;28;20196;-82
2022/12/12 08:31:19;;;;;;;27.57;13.27;;;;;;;-141.97;75.76;47868.91;5052385;28;20220;-82
2022/12/12 08:33:45;;;;;;;27.00;12.20;;;;;;;-141.97;75.67;47899.66;5052371;28;20189;-83
2022/12/12 08:36:12;;;;;;;36.53;17.53;;;;;;;-141.97;76.10;47884.28;5050545;28;20221;-82
2022/12/12 08:38:37;;;;;;;36.57;17.00;;;;;;;-141.97;75.85;47849.69;5052332;28;20208;-82
2022/12/12 08:41:03;;;;;;;35.60;16.93;;;;;;;-141.97;76.46;47847.75;5051947;28;20182;-82
2022/12/12 08:43:28;;;;;;;45.80;20.77;;;;;;;-141.97;77.27;47795.88;5051048;28;20221;-82
2022/12/12 08:45:59;;;;;;;33.83;17.40;;;;;;;-141.97;77.51;47838.16;5043217;28;20240;-83
2022/12/12 08:48:24;;;;;;;38.13;17.40;;;;;;;-141.97;77.14;47878.53;5050593;28;20692;-82
2022/12/12 08:50:51;;;;;;;39.07;18.07;;;;;;;-141.97;75.75;47857.38;5052098;28;20256;-82
2022/12/12 08:53:16;;;;;;;25.70;14.40;;;;;;;-141.97;76.16;47834.31;5051682;28;20280;-82
2022/12/12 08:55:42;;;;;;;24.27;13.10;;;;;;;-141.97;75.10;47842.00;5049779;28;20209;-82
2022/12/12 08:58:07;;;;;;;26.73;13.67;;;;;;;-141.97;74.83;47849.69;5051035;28;20630;-82
2022/12/12 09:00:32;;;;;;;51.07;26.87;;;;;;;-141.97;74.38;47874.69;5051748;28;20187;-82
2022/12/12 09:02:58;;;;;;;48.07;23.37;;;;;;;-141.97;73.66;47776.63;5050915;28;20183;-82
2022/12/12 09:05:23;;;;;;;20.80;10.50;;;;;;;-141.97;72.62;47853.53;5045345;28;20265;-82
2022/12/12 09:07:49;;;;;;;19.23;9.93;;;;;;;-141.97;72.80;47842.00;5047472;28;20180;-82
2022/12/12 09:10:15;;;;;;;25.83;15.50;;;;;;;-141.97;71.67;47857.38;5050936;28;20645;-84
2022/12/12 09:12:40;;;;;;;15.83;9.13;;;;;;;-141.97;71.17;47776.63;5051131;28;20227;-85
2022/12/12 09:15:06;;;;;;;19.90;10.83;;;;;;;-141.97;70.49;47955.41;5050255;28;20245;-84
2022/12/12 09:17:31;;;;;;;14.90;8.57;;;;;;;-141.97;70.07;47940.03;5050621;28;20541;-84
2022/12/12 09:19:57;;;;;;;25.70;14.60;;;;;;;-141.97;70.86;47834.31;5051157;28;20208;-84
2022/12/12 09:22:22;;;;;;;21.97;12.57;;;;;;;-141.97;70.64;47805.47;5052130;28;20265;-82
2022/12/12 09:24:47;;;;;;;25.37;15.23;;;;;;;-141.97;70.09;47884.28;5053412;28;20629;-84
2022/12/12 09:27:13;;;;;;;28.27;15.33;;;;;;;-141.97;70.07;47865.06;5057715;28;20192;-85
2022/12/12 09:29:39;;;;;;;26.27;15.37;;;;;;;-141.97;68.35;47857.38;5055743;28;20778;-83
2022/12/12 09:32:05;;;;;;;28.70;17.47;;;;;;;-141.97;67.43;47853.53;5052130;28;20180;-83
2022/12/12 09:34:32;;;;;;;19.93;11.00;;;;;;;-141.97;68.47;47880.44;5049450;28;20175;-83
2022/12/12 09:36:57;;;;;;;23.20;11.50;;;;;;;-141.97;68.45;47830.47;5049651;28;20244;-83
2022/12/12 09:39:23;;;;;;;20.20;12.17;;;;;;;-141.97;66.69;47868.91;5052286;28;20321;-83
2022/12/12 09:41:49;;;;;;;26.50;14.70;;;;;;;-141.97;66.10;47853.53;5049105;28;20196;-83
2022/12/12 09:44:19;;;;;;;38.43;20.40;;;;;;;-141.97;65.23;47845.84;5038132;28;20308;-83
2022/12/12 09:46:56;;;;;;;66.90;35.47;;;;;;;-141.97;65.79;47866.97;5054667;28;20199;-83
2022/12/12 09:49:51;;;;;;;95.70;52.57;;;;;;;-141.97;66.39;47872.75;5063412;28;20676;-83
2022/12/12 09:52:27;;;;;;;71.57;40.00;;;;;;;-141.97;65.21;47949.66;5050448;28;20231;-83
2022/12/12 09:54:53;;;;;;;44.53;25.87;;;;;;;-141.97;65.12;47842.00;5035526;28;20186;-83
2022/12/12 09:57:41;;;;;;;30.37;17.27;;;;;;;-141.97;63.33;47842.00;5039896;28;20200;-83
2022/12/12 10:00:13;;;;;;;25.00;14.07;;;;;;;-141.97;63.67;47811.25;5050512;28;20292;-82
2022/12/12 10:02:44;;;;;;;29.23;15.87;;;;;;;-141.97;62.78;47853.53;5049828;28;20219;-82
2022/12/12 10:05:47;;;;;;;31.97;17.80;;;;;;;-141.97;63.10;47849.69;5050127;28;20173;-82
2022/12/12 10:08:19;;;;;;;30.83;15.70;;;;;;;-141.97;61.94;47761.25;5049839;28;20679;-83
2022/12/12 10:10:49;;;;;;;31.00;18.53;;;;;;;-141.97;62.44;47842.00;5049154;28;20663;-82
2022/12/12 10:13:20;;;;;;;26.43;16.03;;;;;;;-141.97;61.42;47830.47;5050140;28;20181;-82
2022/12/12 10:15:51;;;;;;;22.73;13.17;;;;;;;-141.97;60.65;47811.25;5050003;28;20918;-84
2022/12/12 10:18:21;;;;;;;27.53;15.67;;;;;;;-141.97;61.81;47822.78;5047911;28;20680;-84
2022/12/12 10:20:50;;;;;;;29.23;14.33;;;;;;;-141.97;62.87;47868.91;5050005;28;20180;-81
2022/12/12 10:23:26;;;;;;;25.33;12.57;;;;;;;-141.97;61.71;47851.59;5050989;28;20184;-82
2022/12/12 10:25:56;;;;;;;18.70;10.97;;;;;;;-141.97;62.25;47842.00;5044862;28;20173;-82
2022/12/12 10:28:27;;;;;;;24.27;13.40;;;;;;;-141.97;63.17;47861.22;5048989;28;20613;-85
2022/12/12 10:31:30;;;;;;;15.67;9.30;;;;;;;-141.97;62.32;47840.06;5050469;28;20207;-84
2022/12/12 10:34:07;;;;;;;17.80;9.70;;;;;;;-141.97;62.16;47853.53;5058087;28;20189;-84
2022/12/12 10:36:48;;;;;;;14.23;7.93;;;;;;;-141.97;61.46;47859.28;5067972;28;20224;-84
2022/12/12 10:39:38;;;;;;;143.03;35.80;;;;;;;-141.97;61.02;47838.16;5067030;28;20197;-83
2022/12/12 10:42:23;;;;;;;31.00;13.57;;;;;;;-141.97;59.93;47853.53;5070112;28;20190;-84
2022/12/12 10:44:48;;;;;;;25.80;10.83;;;;;;;-141.97;59.20;47780.47;5055814;28;20260;-84
2022/12/12 10:47:14;;;;;;;9.70;6.57;;;;;;;-141.97;57.46;47849.69;5050654;28;20649;-84
2022/12/12 10:49:40;;;;;;;12.23;6.83;;;;;;;-141.97;57.90;47822.78;5049830;28;20273;-83
2022/12/12 10:52:17;;;;;;;12.10;7.50;;;;;;;-141.97;57.78;47803.56;5048928;28;20177;-84
2022/12/12 10:54:51;;;;;;;11.87;6.77;;;;;;;-141.97;56.83;47755.50;5057718;28;20188;-84
2022/12/12 10:57:23;;;;;;;11.73;6.73;;;;;;;-141.97;56.67;47818.94;5066182;28;20181;-84
2022/12/12 10:59:51;;;;;;;13.13;7.13;;;;;;;-141.97;56.55;47680.53;5051908;28;20213;-84
2022/12/12 11:02:28;;;;;;;17.70;8.63;;;;;;;-141.97;56.81;47836.22;5049593;28;20231;-84
2022/12/12 11:05:09;;;;;;;12.03;7.93;;;;;;;-141.97;57.65;47842.00;5048171;28;20801;-84
2022/12/12 11:07:37;;;;;;;14.80;7.60;;;;;;;-141.97;57.40;47818.94;5050241;28;20643;-83
2022/12/12 11:10:23;;;;;;;13.10;6.67;;;;;;;-141.97;56.50;47859.28;5048323;28;20189;-83
2022/12/12 11:12:58;;;;;;;11.60;7.00;;;;;;;-141.97;56.68;47842.00;5049672;28;20185;-83
2022/12/12 11:15:49;;;;;;;16.87;10.07;;;;;;;-141.97;57.03;47842.00;5048692;28;20684;-84
2022/12/12 11:18:18;;;;;;;18.10;9.50;;;;;;;-141.97;56.61;47818.94;5049140;28;20695;-83
2022/12/12 11:20:54;;;;;;;137.87;47.73;;;;;;;-141.97;56.68;47826.63;5050431;28;20193;-83
2022/12/12 11:23:27;;;;;;;14.63;8.37;;;;;;;-141.97;56.53;47799.72;5051238;28;20197;-82
2022/12/12 11:25:55;;;;;;;13.30;7.77;;;;;;;-141.97;55.99;47809.31;5037380;28;20189;-83
2022/12/12 11:28:22;;;;;;;17.00;8.90;;;;;;;-141.97;56.46;47826.63;5051882;28;20240;-83
2022/12/12 11:30:51;;;;;;;15.57;8.43;;;;;;;-141.97;57.58;47836.22;5055867;28;20185;-85
2022/12/12 11:33:30;;;;;;;13.70;8.07;;;;;;;-141.97;58.34;47905.44;5053242;28;20183;-83